createdAt,value
2018-07-07T00:00:34.133Z,0.00
2018-07-07T00:01:34.064Z,0.00
2018-07-07T00:02:33.994Z,0.00
2018-07-07T00:03:33.925Z,0.00
2018-07-07T00:04:33.852Z,0.00
2018-07-07T00:05:33.782Z,0.00
2018-07-07T00:06:33.710Z,0.00
2018-07-07T00:07:33.640Z,0.00
2018-07-07T00:08:33.570Z,0.00
2018-07-07T00:09:33.500Z,0.00
2018-07-07T00:10:33.428Z,0.00
2018-07-07T00:11:33.364Z,0.00
2018-07-07T00:12:33.287Z,0.00
2018-07-07T00:13:33.220Z,0.00
2018-07-07T00:14:33.146Z,0.00
2018-07-07T00:15:33.077Z,0.00
2018-07-07T00:16:33.007Z,0.00
2018-07-07T00:17:32.935Z,0.00
2018-07-07T00:18:32.866Z,0.00
2018-07-07T00:19:32.794Z,0.00
2018-07-07T00:20:32.721Z,0.00
2018-07-07T00:21:32.664Z,0.00
2018-07-07T00:22:32.586Z,0.00
2018-07-07T00:23:32.512Z,0.00
2018-07-07T00:24:32.448Z,0.00
2018-07-07T00:25:32.371Z,0.00
2018-07-07T00:26:32.302Z,0.00
2018-07-07T00:27:32.230Z,0.00
2018-07-07T00:28:32.160Z,0.00
2018-07-07T00:29:32.088Z,0.00
2018-07-07T00:30:32.023Z,0.00
2018-07-07T00:31:31.950Z,0.00
2018-07-07T00:32:31.878Z,0.00
2018-07-07T00:33:31.807Z,0.00
2018-07-07T00:34:31.739Z,0.00
2018-07-07T00:35:31.669Z,0.00
2018-07-07T00:36:31.593Z,0.00
2018-07-07T00:37:31.522Z,0.00
2018-07-07T00:38:31.451Z,0.00
2018-07-07T00:39:31.382Z,0.00
2018-07-07T00:40:31.311Z,0.00
2018-07-07T00:41:31.244Z,0.00
2018-07-07T00:42:31.169Z,0.00
2018-07-07T00:43:31.099Z,0.00
2018-07-07T00:44:31.029Z,0.00
2018-07-07T00:45:30.955Z,0.00
2018-07-07T00:46:30.888Z,0.00
2018-07-07T00:47:30.852Z,0.00
2018-07-07T00:48:30.751Z,0.00
2018-07-07T00:49:30.671Z,0.00
2018-07-07T00:50:30.603Z,0.00
2018-07-07T00:51:30.529Z,0.00
2018-07-07T00:52:30.461Z,0.00
2018-07-07T00:53:30.390Z,0.00
2018-07-07T00:54:30.339Z,0.00
2018-07-07T00:55:30.249Z,0.00
2018-07-07T00:56:30.180Z,0.00
2018-07-07T00:57:30.114Z,0.00
2018-07-07T00:58:30.039Z,0.00
2018-07-07T00:59:29.966Z,0.00
2018-07-07T01:00:29.897Z,0.00
2018-07-07T01:01:29.822Z,0.00
2018-07-07T01:02:29.753Z,0.00
2018-07-07T01:03:29.681Z,0.00
2018-07-07T01:04:29.611Z,0.00
2018-07-07T01:05:29.542Z,0.00
2018-07-07T01:06:29.470Z,0.00
2018-07-07T01:07:29.401Z,0.00
2018-07-07T01:08:29.330Z,0.00
2018-07-07T01:09:29.288Z,0.00
2018-07-07T01:10:29.185Z,0.00
2018-07-07T01:11:29.119Z,0.00
2018-07-07T01:12:29.040Z,0.00
2018-07-07T01:13:28.976Z,0.00
2018-07-07T01:14:28.903Z,0.00
2018-07-07T01:15:28.835Z,0.00
2018-07-07T01:16:28.761Z,0.00
2018-07-07T01:17:28.691Z,0.00
2018-07-07T01:18:28.618Z,0.00
2018-07-07T01:19:28.554Z,0.00
2018-07-07T01:20:28.476Z,0.00
2018-07-07T01:21:28.406Z,0.00
2018-07-07T01:22:28.335Z,0.00
2018-07-07T01:23:28.265Z,0.00
2018-07-07T01:24:28.199Z,0.00
2018-07-07T01:25:28.126Z,0.00
2018-07-07T01:26:28.050Z,0.00
2018-07-07T01:27:27.981Z,0.00
2018-07-07T01:28:27.911Z,0.00
2018-07-07T01:29:27.843Z,0.00
2018-07-07T01:30:27.767Z,0.00
2018-07-07T01:31:27.695Z,0.00
2018-07-07T01:32:27.621Z,0.00
2018-07-07T01:33:27.556Z,0.00
2018-07-07T01:34:27.483Z,0.00
2018-07-07T01:35:27.416Z,0.00
2018-07-07T01:36:27.340Z,0.00
2018-07-07T01:37:27.272Z,0.00
2018-07-07T01:38:27.198Z,0.00
2018-07-07T01:39:27.129Z,0.00
2018-07-07T01:40:27.055Z,0.00
2018-07-07T01:41:26.986Z,0.00
2018-07-07T01:42:26.919Z,0.00
2018-07-07T01:43:26.842Z,0.00
2018-07-07T01:44:26.777Z,0.00
2018-07-07T01:45:26.700Z,0.00
2018-07-07T01:46:26.633Z,0.00
2018-07-07T01:47:26.559Z,0.00
2018-07-07T01:48:26.489Z,0.00
2018-07-07T01:49:26.416Z,0.00
2018-07-07T01:50:26.347Z,0.00
2018-07-07T01:51:26.275Z,0.00
2018-07-07T01:52:26.204Z,0.00
2018-07-07T01:53:26.133Z,0.00
2018-07-07T01:54:26.070Z,0.00
2018-07-07T01:55:25.988Z,0.00
2018-07-07T01:56:25.920Z,0.00
2018-07-07T01:57:25.843Z,0.00
2018-07-07T01:58:25.776Z,0.00
2018-07-07T01:59:25.705Z,0.00
2018-07-07T02:00:25.639Z,0.00
2018-07-07T02:01:25.562Z,0.00
2018-07-07T02:02:25.490Z,0.00
2018-07-07T02:03:25.420Z,0.00
2018-07-07T02:04:25.348Z,0.00
2018-07-07T02:05:25.276Z,0.00
2018-07-07T02:06:25.207Z,0.00
2018-07-07T02:07:25.136Z,0.00
2018-07-07T02:08:25.066Z,0.00
2018-07-07T02:09:24.995Z,0.00
2018-07-07T02:10:24.967Z,0.00
2018-07-07T02:11:24.854Z,0.00
2018-07-07T02:12:24.783Z,0.00
2018-07-07T02:13:24.712Z,0.00
2018-07-07T02:14:24.635Z,0.00
2018-07-07T02:15:24.566Z,0.00
2018-07-07T02:16:24.495Z,0.00
2018-07-07T02:17:24.421Z,0.00
2018-07-07T02:18:24.354Z,0.00
2018-07-07T02:19:24.282Z,0.00
2018-07-07T02:20:24.211Z,0.00
2018-07-07T02:21:24.139Z,0.00
2018-07-07T02:22:24.065Z,0.00
2018-07-07T02:23:24.001Z,0.00
2018-07-07T02:24:23.925Z,0.00
2018-07-07T02:25:23.852Z,0.00
2018-07-07T02:26:23.784Z,0.00
2018-07-07T02:27:23.712Z,0.00
2018-07-07T02:28:23.641Z,0.00
2018-07-07T02:29:23.568Z,0.00
2018-07-07T02:30:23.497Z,0.00
2018-07-07T02:31:23.433Z,0.00
2018-07-07T02:32:23.357Z,0.00
2018-07-07T02:33:23.284Z,0.00
2018-07-07T02:34:23.214Z,0.00
2018-07-07T02:35:23.137Z,0.00
2018-07-07T02:36:23.078Z,0.00
2018-07-07T02:37:22.998Z,0.00
2018-07-07T02:38:22.940Z,0.00
2018-07-07T02:39:22.858Z,0.00
2018-07-07T02:40:22.785Z,0.00
2018-07-07T02:41:22.714Z,0.00
2018-07-07T02:42:22.644Z,0.00
2018-07-07T02:43:22.571Z,0.00
2018-07-07T02:44:22.503Z,0.00
2018-07-07T02:45:22.430Z,0.00
2018-07-07T02:46:22.377Z,0.00
2018-07-07T02:47:22.287Z,0.00
2018-07-07T02:48:22.221Z,0.00
2018-07-07T02:49:22.146Z,0.00
2018-07-07T02:50:22.077Z,0.00
2018-07-07T02:51:21.998Z,0.00
2018-07-07T02:52:21.933Z,0.00
2018-07-07T02:53:21.859Z,0.00
2018-07-07T02:54:21.791Z,4.00
2018-07-07T02:55:21.719Z,4.00
2018-07-07T02:56:21.651Z,4.00
2018-07-07T02:57:21.577Z,0.00
2018-07-07T02:58:21.506Z,4.00
2018-07-07T02:59:21.442Z,4.00
2018-07-07T03:00:21.361Z,4.00
2018-07-07T03:01:21.292Z,4.00
2018-07-07T03:02:21.219Z,4.00
2018-07-07T03:03:21.195Z,8.00
2018-07-07T03:04:21.077Z,4.00
2018-07-07T03:05:21.003Z,8.00
2018-07-07T03:06:20.935Z,12.00
2018-07-07T03:07:20.861Z,8.00
2018-07-07T03:08:20.794Z,8.00
2018-07-07T03:09:20.721Z,16.00
2018-07-07T03:10:20.652Z,16.00
2018-07-07T03:11:20.590Z,16.00
2018-07-07T03:12:20.505Z,20.00
2018-07-07T03:13:20.437Z,20.00
2018-07-07T03:14:20.363Z,20.00
2018-07-07T03:15:20.291Z,24.00
2018-07-07T03:16:20.219Z,28.00
2018-07-07T03:17:20.150Z,32.00
2018-07-07T03:18:20.077Z,32.00
2018-07-07T03:19:20.006Z,36.00
2018-07-07T03:20:19.934Z,36.00
2018-07-07T03:21:19.862Z,40.00
2018-07-07T03:22:19.792Z,44.00
2018-07-07T03:23:19.721Z,44.00
2018-07-07T03:24:19.651Z,48.00
2018-07-07T03:25:19.575Z,52.00
2018-07-07T03:26:19.504Z,56.00
2018-07-07T03:27:19.433Z,60.00
2018-07-07T03:28:19.361Z,64.00
2018-07-07T03:29:19.284Z,72.00
2018-07-07T03:30:19.225Z,76.00
2018-07-07T03:31:19.149Z,80.00
2018-07-07T03:32:19.074Z,88.00
2018-07-07T03:33:19.006Z,92.00
2018-07-07T03:34:18.935Z,100.00
2018-07-07T03:35:18.861Z,100.00
2018-07-07T03:36:18.790Z,112.00
2018-07-07T03:37:18.716Z,116.00
2018-07-07T03:38:18.645Z,128.00
2018-07-07T03:39:18.578Z,140.00
2018-07-07T03:40:18.503Z,152.00
2018-07-07T03:41:18.433Z,156.00
2018-07-07T03:42:18.436Z,164.00
2018-07-07T03:43:18.293Z,172.00
2018-07-07T03:44:18.220Z,192.00
2018-07-07T03:45:18.144Z,216.00
2018-07-07T03:46:18.075Z,236.00
2018-07-07T03:47:18.001Z,256.00
2018-07-07T03:48:17.932Z,268.00
2018-07-07T03:49:17.912Z,276.00
2018-07-07T03:50:17.785Z,280.00
2018-07-07T03:51:17.716Z,288.00
2018-07-07T03:52:17.647Z,300.00
2018-07-07T03:53:17.572Z,308.00
2018-07-07T03:54:17.503Z,312.00
2018-07-07T03:55:17.430Z,332.00
2018-07-07T03:56:17.357Z,368.00
2018-07-07T03:57:17.286Z,416.00
2018-07-07T03:58:17.215Z,448.00
2018-07-07T03:59:17.144Z,492.00
2018-07-07T04:00:17.074Z,544.00
2018-07-07T04:01:17.000Z,572.00
2018-07-07T04:02:16.931Z,532.00
2018-07-07T04:03:16.857Z,476.00
2018-07-07T04:04:16.786Z,448.00
2018-07-07T04:05:16.714Z,444.00
2018-07-07T04:06:16.648Z,448.00
2018-07-07T04:07:16.598Z,476.00
2018-07-07T04:08:16.502Z,496.00
2018-07-07T04:09:16.432Z,484.00
2018-07-07T04:10:16.355Z,488.00
2018-07-07T04:11:16.284Z,504.00
2018-07-07T04:12:16.216Z,516.00
2018-07-07T04:13:16.143Z,528.00
2018-07-07T04:14:16.068Z,540.00
2018-07-07T04:15:15.999Z,552.00
2018-07-07T04:16:15.928Z,560.00
2018-07-07T04:17:15.859Z,576.00
2018-07-07T04:18:15.782Z,588.00
2018-07-07T04:19:15.714Z,604.00
2018-07-07T04:20:15.642Z,628.00
2018-07-07T04:21:15.577Z,644.00
2018-07-07T04:22:15.498Z,668.00
2018-07-07T04:23:15.426Z,684.00
2018-07-07T04:24:15.355Z,700.00
2018-07-07T04:25:15.282Z,716.00
2018-07-07T04:26:15.216Z,756.00
2018-07-07T04:27:15.168Z,756.00
2018-07-07T04:28:15.070Z,744.00
2018-07-07T04:29:15.002Z,744.00
2018-07-07T04:30:14.927Z,748.00
2018-07-07T04:31:14.856Z,788.00
2018-07-07T04:32:14.783Z,800.00
2018-07-07T04:33:14.711Z,780.00
2018-07-07T04:34:14.641Z,784.00
2018-07-07T04:35:14.567Z,792.00
2018-07-07T04:36:14.498Z,804.00
2018-07-07T04:37:14.423Z,840.00
2018-07-07T04:38:14.359Z,876.00
2018-07-07T04:39:14.281Z,896.00
2018-07-07T04:40:14.212Z,928.00
2018-07-07T04:41:14.154Z,972.00
2018-07-07T04:42:14.067Z,996.00
2018-07-07T04:43:14.003Z,1008.00
2018-07-07T04:44:13.924Z,1024.00
2018-07-07T04:45:13.856Z,1048.00
2018-07-07T04:46:13.784Z,1040.00
2018-07-07T04:47:13.706Z,1056.00
2018-07-07T04:48:13.639Z,1104.00
2018-07-07T04:49:13.566Z,1176.00
2018-07-07T04:50:13.496Z,1236.00
2018-07-07T04:51:13.424Z,1196.00
2018-07-07T04:52:13.352Z,1228.00
2018-07-07T04:53:13.279Z,1308.00
2018-07-07T04:54:13.211Z,1340.00
2018-07-07T04:55:13.138Z,1372.00
2018-07-07T04:56:13.067Z,1384.00
2018-07-07T04:57:12.995Z,1312.00
2018-07-07T04:58:12.923Z,1248.00
2018-07-07T04:59:12.863Z,1216.00
2018-07-07T05:00:12.779Z,1156.00
2018-07-07T05:01:12.719Z,1148.00
2018-07-07T05:02:12.632Z,1140.00
2018-07-07T05:03:12.567Z,1200.00
2018-07-07T05:04:12.493Z,1264.00
2018-07-07T05:05:12.424Z,1296.00
2018-07-07T05:06:12.352Z,1332.00
2018-07-07T05:07:12.282Z,1396.00
2018-07-07T05:08:12.228Z,1444.00
2018-07-07T05:09:12.141Z,1420.00
2018-07-07T05:10:12.066Z,1388.00
2018-07-07T05:11:12.010Z,1368.00
2018-07-07T05:12:12.054Z,1308.00
2018-07-07T05:13:11.860Z,1292.00
2018-07-07T05:14:11.783Z,1304.00
2018-07-07T05:15:11.711Z,1440.00
2018-07-07T05:16:11.646Z,1564.00
2018-07-07T05:17:11.612Z,1768.00
2018-07-07T05:18:11.499Z,1892.00
2018-07-07T05:19:11.431Z,1960.00
2018-07-07T05:20:11.360Z,2052.00
2018-07-07T05:21:11.282Z,2064.00
2018-07-07T05:22:11.213Z,2104.00
2018-07-07T05:23:11.141Z,2256.00
2018-07-07T05:24:11.073Z,2308.00
2018-07-07T05:25:11.001Z,2320.00
2018-07-07T05:26:10.932Z,2276.00
2018-07-07T05:27:10.860Z,2220.00
2018-07-07T05:28:10.783Z,2364.00
2018-07-07T05:29:10.715Z,2576.00
2018-07-07T05:30:10.644Z,2532.00
2018-07-07T05:31:10.573Z,2436.00
2018-07-07T05:32:10.570Z,2396.00
2018-07-07T05:33:10.431Z,2316.00
2018-07-07T05:34:10.359Z,2260.00
2018-07-07T05:35:10.292Z,2132.00
2018-07-07T05:36:10.220Z,2100.00
2018-07-07T05:37:10.167Z,2084.00
2018-07-07T05:38:10.071Z,2156.00
2018-07-07T05:39:10.009Z,2132.00
2018-07-07T05:40:09.939Z,2072.00
2018-07-07T05:41:09.864Z,2004.00
2018-07-07T05:42:09.797Z,1924.00
2018-07-07T05:43:09.724Z,1808.00
2018-07-07T05:44:09.652Z,1736.00
2018-07-07T05:45:09.582Z,1684.00
2018-07-07T05:46:09.510Z,1648.00
2018-07-07T05:47:09.439Z,1600.00
2018-07-07T05:48:09.368Z,1588.00
2018-07-07T05:49:09.298Z,1568.00
2018-07-07T05:50:09.233Z,1560.00
2018-07-07T05:51:09.159Z,1628.00
2018-07-07T05:52:09.086Z,1656.00
2018-07-07T05:53:09.013Z,1680.00
2018-07-07T05:54:08.945Z,1728.00
2018-07-07T05:55:08.877Z,1816.00
2018-07-07T05:56:08.802Z,1972.00
2018-07-07T05:57:08.736Z,2068.00
2018-07-07T05:58:08.660Z,2116.00
2018-07-07T05:59:08.589Z,2080.00
2018-07-07T06:00:08.521Z,2028.00
2018-07-07T06:01:08.451Z,2004.00
2018-07-07T06:02:08.378Z,2016.00
2018-07-07T06:03:08.308Z,2076.00
2018-07-07T06:04:08.237Z,2180.00
2018-07-07T06:05:08.168Z,2212.00
2018-07-07T06:06:08.097Z,2212.00
2018-07-07T06:07:08.027Z,2208.00
2018-07-07T06:08:07.956Z,2192.00
2018-07-07T06:09:07.884Z,2120.00
2018-07-07T06:10:07.813Z,2080.00
2018-07-07T06:11:07.748Z,2052.00
2018-07-07T06:12:07.667Z,2060.00
2018-07-07T06:13:07.609Z,2080.00
2018-07-07T06:14:07.533Z,2096.00
2018-07-07T06:15:07.463Z,2148.00
2018-07-07T06:16:07.391Z,2196.00
2018-07-07T06:17:07.318Z,2288.00
2018-07-07T06:18:07.256Z,2376.00
2018-07-07T06:19:07.177Z,2440.00
2018-07-07T06:20:07.109Z,2468.00
2018-07-07T06:21:07.038Z,2500.00
2018-07-07T06:22:06.972Z,2512.00
2018-07-07T06:23:06.897Z,2488.00
2018-07-07T06:24:06.828Z,2480.00
2018-07-07T06:25:06.756Z,2496.00
2018-07-07T06:26:06.690Z,2536.00
2018-07-07T06:27:06.617Z,2548.00
2018-07-07T06:28:06.549Z,2516.00
2018-07-07T06:29:06.475Z,2476.00
2018-07-07T06:30:06.408Z,2376.00
2018-07-07T06:31:06.342Z,2388.00
2018-07-07T06:32:06.267Z,2420.00
2018-07-07T06:33:06.195Z,2420.00
2018-07-07T06:34:06.127Z,2416.00
2018-07-07T06:35:06.061Z,2428.00
2018-07-07T06:36:05.988Z,2432.00
2018-07-07T06:37:05.916Z,2456.00
2018-07-07T06:38:05.846Z,2440.00
2018-07-07T06:39:05.778Z,2384.00
2018-07-07T06:40:05.708Z,2372.00
2018-07-07T06:41:05.635Z,2436.00
2018-07-07T06:42:05.574Z,2484.00
2018-07-07T06:43:05.500Z,2540.00
2018-07-07T06:44:05.432Z,2528.00
2018-07-07T06:45:05.371Z,2552.00
2018-07-07T06:46:05.292Z,2580.00
2018-07-07T06:47:05.219Z,2600.00
2018-07-07T06:48:05.150Z,2632.00
2018-07-07T06:49:05.080Z,2656.00
2018-07-07T06:50:05.010Z,2712.00
2018-07-07T06:51:04.941Z,2796.00
2018-07-07T06:52:04.872Z,3120.00
2018-07-07T06:53:04.801Z,3588.00
2018-07-07T06:54:04.816Z,3980.00
2018-07-07T06:55:04.664Z,4484.00
2018-07-07T06:56:04.601Z,4792.00
2018-07-07T06:57:04.523Z,4772.00
2018-07-07T06:58:04.454Z,4552.00
2018-07-07T06:59:04.390Z,4480.00
2018-07-07T07:00:04.439Z,4548.00
2018-07-07T07:01:04.253Z,4356.00
2018-07-07T07:02:04.182Z,4040.00
2018-07-07T07:03:04.108Z,4212.00
2018-07-07T07:04:04.045Z,4428.00
2018-07-07T07:05:03.973Z,4676.00
2018-07-07T07:06:03.902Z,4548.00
2018-07-07T07:07:03.833Z,4756.00
2018-07-07T07:08:03.764Z,4836.00
2018-07-07T07:09:03.702Z,4876.00
2018-07-07T07:10:03.627Z,5036.00
2018-07-07T07:11:03.557Z,4824.00
2018-07-07T07:12:03.506Z,4552.00
2018-07-07T07:13:03.417Z,4496.00
2018-07-07T07:14:03.349Z,4048.00
2018-07-07T07:15:03.283Z,3928.00
2018-07-07T07:16:03.216Z,3988.00
2018-07-07T07:17:03.144Z,3868.00
2018-07-07T07:18:03.075Z,3840.00
2018-07-07T07:19:03.006Z,3676.00
2018-07-07T07:20:03.014Z,3672.00
2018-07-07T07:21:02.868Z,3656.00
2018-07-07T07:22:02.800Z,3584.00
2018-07-07T07:23:02.734Z,3396.00
2018-07-07T07:24:02.665Z,3516.00
2018-07-07T07:25:02.595Z,3792.00
2018-07-07T07:26:02.564Z,4224.00
2018-07-07T07:27:02.459Z,4824.00
2018-07-07T07:28:02.438Z,5136.00
2018-07-07T07:29:02.321Z,5308.00
2018-07-07T07:30:02.256Z,5316.00
2018-07-07T07:31:02.187Z,5448.00
2018-07-07T07:32:02.137Z,5544.00
2018-07-07T07:33:02.158Z,5288.00
2018-07-07T07:34:01.979Z,5044.00
2018-07-07T07:35:01.910Z,4784.00
2018-07-07T07:36:01.964Z,4460.00
2018-07-07T07:37:01.843Z,4124.00
2018-07-07T07:38:01.712Z,3888.00
2018-07-07T07:39:01.752Z,3724.00
2018-07-07T07:40:01.569Z,3628.00
2018-07-07T07:41:01.504Z,3576.00
2018-07-07T07:42:01.503Z,3528.00
2018-07-07T07:43:01.367Z,3504.00
2018-07-07T07:44:01.369Z,3488.00
2018-07-07T07:45:01.232Z,3464.00
2018-07-07T07:46:01.160Z,3428.00
2018-07-07T07:47:01.096Z,3432.00
2018-07-07T07:48:01.029Z,3460.00
2018-07-07T07:49:00.960Z,3472.00
2018-07-07T07:50:00.943Z,3524.00
2018-07-07T07:51:00.827Z,3536.00
2018-07-07T07:52:00.758Z,3492.00
2018-07-07T07:53:00.705Z,3440.00
2018-07-07T07:54:00.616Z,3408.00
2018-07-07T07:55:00.548Z,3416.00
2018-07-07T07:56:00.482Z,3432.00
2018-07-07T07:57:00.412Z,3440.00
2018-07-07T07:58:00.346Z,3452.00
2018-07-07T07:59:00.283Z,3468.00
2018-07-07T08:00:00.212Z,3452.00
2018-07-07T08:01:00.145Z,3412.00
2018-07-07T08:02:00.081Z,3384.00
2018-07-07T08:03:00.140Z,3388.00
2018-07-07T08:04:00.035Z,3408.00
2018-07-07T08:04:59.871Z,3412.00
2018-07-07T08:05:59.804Z,3440.00
2018-07-07T08:06:59.736Z,3488.00
2018-07-07T08:07:59.667Z,3508.00
2018-07-07T08:08:59.597Z,3580.00
2018-07-07T08:09:59.529Z,3656.00
2018-07-07T08:10:59.465Z,3676.00
2018-07-07T08:11:59.392Z,3740.00
2018-07-07T08:12:59.327Z,3788.00
2018-07-07T08:13:59.262Z,3828.00
2018-07-07T08:14:59.752Z,3916.00
2018-07-07T08:15:59.123Z,4040.00
2018-07-07T08:16:59.073Z,4188.00
2018-07-07T08:17:58.986Z,4312.00
2018-07-07T08:18:58.920Z,4356.00
2018-07-07T08:19:58.852Z,4316.00
2018-07-07T08:20:58.787Z,4436.00
2018-07-07T08:21:58.720Z,4544.00
2018-07-07T08:22:58.677Z,4680.00
2018-07-07T08:23:58.581Z,4772.00
2018-07-07T08:24:58.514Z,4996.00
2018-07-07T08:25:58.455Z,4976.00
2018-07-07T08:26:58.396Z,4920.00
2018-07-07T08:27:58.312Z,5012.00
2018-07-07T08:28:58.320Z,5140.00
2018-07-07T08:29:58.567Z,5200.00
2018-07-07T08:30:58.117Z,5292.00
2018-07-07T08:31:58.077Z,5268.00
2018-07-07T08:32:57.980Z,5208.00
2018-07-07T08:33:57.931Z,5256.00
2018-07-07T08:34:57.841Z,5236.00
2018-07-07T08:35:57.779Z,5200.00
2018-07-07T08:36:57.705Z,5056.00
2018-07-07T08:37:57.640Z,5024.00
2018-07-07T08:38:57.571Z,4924.00
2018-07-07T08:39:57.634Z,4792.00
2018-07-07T08:40:57.436Z,4700.00
2018-07-07T08:41:57.402Z,4644.00
2018-07-07T08:42:57.302Z,4652.00
2018-07-07T08:43:57.375Z,4764.00
2018-07-07T08:44:57.185Z,4804.00
2018-07-07T08:45:57.109Z,4784.00
2018-07-07T08:46:57.034Z,4628.00
2018-07-07T08:47:57.066Z,4600.00
2018-07-07T08:48:56.902Z,4608.00
2018-07-07T08:49:56.832Z,4612.00
2018-07-07T08:50:56.770Z,4576.00
2018-07-07T08:51:56.699Z,4528.00
2018-07-07T08:52:56.632Z,5060.00
2018-07-07T08:53:56.565Z,4760.00
2018-07-07T08:54:56.500Z,4640.00
2018-07-07T08:55:56.431Z,4752.00
2018-07-07T08:56:56.363Z,4760.00
2018-07-07T08:57:56.298Z,4796.00
2018-07-07T08:58:56.233Z,4724.00
2018-07-07T08:59:56.166Z,4520.00
2018-07-07T09:00:56.099Z,5868.00
2018-07-07T09:01:56.027Z,14532.00
2018-07-07T09:02:55.968Z,4852.00
2018-07-07T09:03:55.898Z,5996.00
2018-07-07T09:04:55.834Z,5404.00
2018-07-07T09:05:55.789Z,6772.00
2018-07-07T09:06:55.703Z,8240.00
2018-07-07T09:07:55.734Z,4740.00
2018-07-07T09:08:55.570Z,12952.00
2018-07-07T09:09:55.501Z,8128.00
2018-07-07T09:10:55.434Z,59904.00
2018-07-07T09:11:55.559Z,35648.00
2018-07-07T09:12:55.404Z,7500.00
2018-07-07T09:13:55.681Z,5872.00
2018-07-07T09:14:55.298Z,47424.00
2018-07-07T09:15:55.390Z,28832.00
2018-07-07T09:16:55.046Z,75616.00
2018-07-07T09:17:54.974Z,76448.00
2018-07-07T09:18:54.974Z,76512.00
2018-07-07T09:19:54.847Z,74912.00
2018-07-07T09:20:54.780Z,75968.00
2018-07-07T09:21:54.718Z,78112.00
2018-07-07T09:22:54.653Z,78304.00
2018-07-07T09:23:54.603Z,72960.00
2018-07-07T09:24:54.527Z,72672.00
2018-07-07T09:25:54.465Z,70752.00
2018-07-07T09:26:54.418Z,68736.00
2018-07-07T09:27:54.531Z,71968.00
2018-07-07T09:28:54.289Z,77216.00
2018-07-07T09:29:54.223Z,78848.00
2018-07-07T09:30:54.176Z,80672.00
2018-07-07T09:31:54.101Z,80960.00
2018-07-07T09:32:54.179Z,77952.00
2018-07-07T09:33:53.987Z,75936.00
2018-07-07T09:34:53.924Z,78656.00
2018-07-07T09:35:53.876Z,80416.00
2018-07-07T09:36:53.803Z,82720.00
2018-07-07T09:37:53.754Z,84832.00
2018-07-07T09:38:53.745Z,86144.00
2018-07-07T09:39:53.630Z,83968.00
2018-07-07T09:40:53.985Z,83200.00
2018-07-07T09:41:53.519Z,82048.00
2018-07-07T09:42:53.529Z,80384.00
2018-07-07T09:43:53.413Z,81056.00
2018-07-07T09:44:53.345Z,81440.00
2018-07-07T09:45:53.342Z,80608.00
2018-07-07T09:46:53.236Z,80096.00
2018-07-07T09:47:53.177Z,81664.00
2018-07-07T09:48:53.123Z,81344.00
2018-07-07T09:49:53.065Z,79456.00
2018-07-07T09:50:53.009Z,75744.00
2018-07-07T09:51:52.969Z,73440.00
2018-07-07T09:52:52.899Z,74336.00
2018-07-07T09:53:52.843Z,73920.00
2018-07-07T09:54:52.789Z,71744.00
2018-07-07T09:55:52.733Z,74368.00
2018-07-07T09:56:52.685Z,76032.00
2018-07-07T09:57:52.625Z,75488.00
2018-07-07T09:58:52.574Z,76416.00
2018-07-07T09:59:52.519Z,77824.00
2018-07-07T10:00:52.484Z,78656.00
2018-07-07T10:01:52.457Z,78016.00
2018-07-07T10:02:52.353Z,77504.00
2018-07-07T10:03:52.301Z,75488.00
2018-07-07T10:04:52.249Z,73152.00
2018-07-07T10:05:52.196Z,68288.00
2018-07-07T10:06:52.142Z,65408.00
2018-07-07T10:07:52.088Z,69888.00
2018-07-07T10:08:52.033Z,75296.00
2018-07-07T10:09:51.987Z,80256.00
2018-07-07T10:10:51.928Z,81024.00
2018-07-07T10:11:51.883Z,78560.00
2018-07-07T10:12:51.818Z,77376.00
2018-07-07T10:13:51.764Z,77888.00
2018-07-07T10:14:51.712Z,79008.00
2018-07-07T10:15:51.663Z,76768.00
2018-07-07T10:16:51.604Z,71488.00
2018-07-07T10:17:51.556Z,69760.00
2018-07-07T10:18:51.501Z,74848.00
2018-07-07T10:19:51.503Z,77408.00
2018-07-07T10:20:51.387Z,78016.00
2018-07-07T10:21:51.347Z,81760.00
2018-07-07T10:22:51.357Z,85536.00
2018-07-07T10:23:51.232Z,85184.00
2018-07-07T10:24:51.173Z,82784.00
2018-07-07T10:25:51.119Z,79776.00
2018-07-07T10:26:51.067Z,81184.00
2018-07-07T10:27:51.013Z,81952.00
2018-07-07T10:28:51.090Z,82400.00
2018-07-07T10:29:50.906Z,83872.00
2018-07-07T10:30:50.849Z,84576.00
2018-07-07T10:31:50.869Z,87168.00
2018-07-07T10:32:50.743Z,86496.00
2018-07-07T10:33:50.693Z,86208.00
2018-07-07T10:34:50.634Z,85312.00
2018-07-07T10:35:50.610Z,84896.00
2018-07-07T10:36:50.529Z,85152.00
2018-07-07T10:37:50.478Z,83520.00
2018-07-07T10:38:50.421Z,82016.00
2018-07-07T10:39:50.370Z,82528.00
2018-07-07T10:40:50.310Z,81376.00
2018-07-07T10:41:50.260Z,81888.00
2018-07-07T10:42:50.207Z,17344.00
2018-07-07T10:43:50.151Z,68224.00
2018-07-07T10:44:50.096Z,48192.00
2018-07-07T10:45:50.215Z,18528.00
2018-07-07T10:46:50.025Z,24448.00
2018-07-07T10:47:49.932Z,6080.00
2018-07-07T10:48:49.919Z,70080.00
2018-07-07T10:49:49.821Z,5640.00
2018-07-07T10:50:49.767Z,7264.00
2018-07-07T10:51:49.711Z,9604.00
2018-07-07T10:52:49.655Z,9136.00
2018-07-07T10:53:49.667Z,52512.00
2018-07-07T10:54:49.541Z,84480.00
2018-07-07T10:55:49.485Z,53216.00
2018-07-07T10:56:49.433Z,10100.00
2018-07-07T10:57:49.372Z,78944.00
2018-07-07T10:58:49.322Z,68960.00
2018-07-07T10:59:49.252Z,75648.00
2018-07-07T11:00:49.192Z,50560.00
2018-07-07T11:01:49.140Z,12224.00
2018-07-07T11:02:49.076Z,16412.00
2018-07-07T11:03:49.021Z,14944.00
2018-07-07T11:04:48.960Z,11536.00
2018-07-07T11:05:48.903Z,6856.00
2018-07-07T11:06:48.840Z,10324.00
2018-07-07T11:07:48.785Z,26016.00
2018-07-07T11:08:48.719Z,15752.00
2018-07-07T11:09:48.662Z,5800.00
2018-07-07T11:10:48.603Z,3888.00
2018-07-07T11:11:48.621Z,46112.00
2018-07-07T11:12:48.478Z,11012.00
2018-07-07T11:13:48.418Z,5512.00
2018-07-07T11:14:48.358Z,7236.00
2018-07-07T11:15:48.307Z,24768.00
2018-07-07T11:16:48.263Z,21184.00
2018-07-07T11:17:48.173Z,93536.00
2018-07-07T11:18:48.114Z,96320.00
2018-07-07T11:19:48.052Z,35680.00
2018-07-07T11:20:47.989Z,92192.00
2018-07-07T11:21:47.927Z,91328.00
2018-07-07T11:22:47.865Z,91776.00
2018-07-07T11:23:47.808Z,92800.00
2018-07-07T11:24:47.745Z,93312.00
2018-07-07T11:25:47.686Z,93600.00
2018-07-07T11:26:47.626Z,93856.00
2018-07-07T11:27:47.566Z,94272.00
2018-07-07T11:28:47.506Z,95712.00
2018-07-07T11:29:47.461Z,96320.00
2018-07-07T11:30:47.389Z,95552.00
2018-07-07T11:31:47.335Z,84256.00
2018-07-07T11:32:47.271Z,11204.00
2018-07-07T11:33:47.216Z,26208.00
2018-07-07T11:34:47.158Z,92928.00
2018-07-07T11:35:47.100Z,36544.00
2018-07-07T11:36:47.098Z,16064.00
2018-07-07T11:37:46.986Z,4652.00
2018-07-07T11:38:46.927Z,5312.00
2018-07-07T11:39:46.875Z,6568.00
2018-07-07T11:40:46.834Z,13328.00
2018-07-07T11:41:46.753Z,3620.00
2018-07-07T11:42:46.696Z,3696.00
2018-07-07T11:43:46.637Z,4556.00
2018-07-07T11:44:46.580Z,7804.00
2018-07-07T11:45:46.522Z,12372.00
2018-07-07T11:46:46.463Z,5548.00
2018-07-07T11:47:46.403Z,10084.00
2018-07-07T11:48:46.349Z,9440.00
2018-07-07T11:49:46.285Z,42752.00
2018-07-07T11:50:46.222Z,21312.00
2018-07-07T11:51:46.165Z,6860.00
2018-07-07T11:52:46.105Z,3140.00
2018-07-07T11:53:46.046Z,3352.00
2018-07-07T11:54:45.985Z,5144.00
2018-07-07T11:55:45.922Z,6960.00
2018-07-07T11:56:45.862Z,8744.00
2018-07-07T11:57:45.798Z,6488.00
2018-07-07T11:58:45.763Z,8184.00
2018-07-07T11:59:45.677Z,35808.00
2018-07-07T12:00:45.622Z,4380.00
2018-07-07T12:01:45.552Z,4740.00
2018-07-07T12:02:45.492Z,5064.00
2018-07-07T12:03:45.429Z,3136.00
2018-07-07T12:04:45.393Z,3888.00
2018-07-07T12:05:45.299Z,3972.00
2018-07-07T12:06:45.241Z,4252.00
2018-07-07T12:07:45.178Z,3616.00
2018-07-07T12:08:45.130Z,3344.00
2018-07-07T12:09:45.053Z,3244.00
2018-07-07T12:10:44.991Z,4528.00
2018-07-07T12:11:44.963Z,3332.00
2018-07-07T12:12:44.863Z,3344.00
2018-07-07T12:13:44.800Z,8404.00
2018-07-07T12:14:44.737Z,7804.00
2018-07-07T12:15:45.263Z,3624.00
2018-07-07T12:16:44.610Z,5712.00
2018-07-07T12:17:44.548Z,3212.00
2018-07-07T12:18:44.485Z,3100.00
2018-07-07T12:19:44.420Z,2988.00
2018-07-07T12:20:44.359Z,2932.00
2018-07-07T12:21:44.295Z,2940.00